Terminal Aerodrome Forecast
Issued by NWS

Current Version | Previous Version | Text Only | Print | Product List | Glossary On
Versions: 1 2 3 4 5 6 7 8 9 10 11 12 13 14 15 16 17 18 19 20 21
000
FTUS45 KBOU 270436 AAB
TAFAPA
TAF AMD
KAPA 270436Z 2705/2724 15010KT P6SM FEW080 SCT150
     FM270600 20009KT P6SM BKN200
     FM271500 27006KT P6SM SCT120 SCT220
     FM271800 01007KT P6SM SCT080 BKN180=

USA.gov is the U.S. government's official web portal to all federal, state and local government web resources and services.